Map

Track Data

SID SEASON NUMBER BASIN SUBBASIN NAME ISO_TIME NATURE LAT LON WMO_WIND WMO_PRES WMO_AGENCY TRACK_TYPE DIST2LAND LANDFALL IFLAG USA_AGENCY USA_ATCF_ID USA_LAT USA_LON USA_RECORD USA_STATUS USA_WIND USA_PRES USA_SSHS USA_R34_NE USA_R34_SE USA_R34_SW USA_R34_NW USA_R50_NE USA_R50_SE USA_R50_SW USA_R50_NW USA_R64_NE USA_R64_SE USA_R64_SW USA_R64_NW USA_POCI USA_ROCI USA_RMW USA_EYE TOKYO_LAT TOKYO_LON TOKYO_GRADE TOKYO_WIND TOKYO_PRES TOKYO_R50_DIR TOKYO_R50_LONG TOKYO_R50_SHORT TOKYO_R30_DIR TOKYO_R30_LONG TOKYO_R30_SHORT TOKYO_LAND CMA_LAT CMA_LON CMA_CAT CMA_WIND CMA_PRES HKO_LAT HKO_LON HKO_CAT HKO_WIND HKO_PRES NEWDELHI_LAT NEWDELHI_LON NEWDELHI_GRADE NEWDELHI_WIND NEWDELHI_PRES NEWDELHI_CI NEWDELHI_DP NEWDELHI_POCI REUNION_LAT REUNION_LON REUNION_TYPE REUNION_WIND REUNION_PRES REUNION_TNUM REUNION_CI REUNION_RMW REUNION_R34_NE REUNION_R34_SE REUNION_R34_SW REUNION_R34_NW REUNION_R50_NE REUNION_R50_SE REUNION_R50_SW REUNION_R50_NW REUNION_R64_NE REUNION_R64_SE REUNION_R64_SW REUNION_R64_NW BOM_LAT BOM_LON BOM_TYPE BOM_WIND BOM_PRES BOM_TNUM BOM_CI BOM_RMW BOM_R34_NE BOM_R34_SE BOM_R34_SW BOM_R34_NW BOM_R50_NE BOM_R50_SE BOM_R50_SW BOM_R50_NW BOM_R64_NE BOM_R64_SE BOM_R64_SW BOM_R64_NW BOM_ROCI BOM_POCI BOM_EYE BOM_POS_METHOD BOM_PRES_METHOD NADI_LAT NADI_LON NADI_CAT NADI_WIND NADI_PRES WELLINGTON_LAT WELLINGTON_LON WELLINGTON_WIND WELLINGTON_PRES DS824_LAT DS824_LON DS824_STAGE DS824_WIND DS824_PRES TD9636_LAT TD9636_LON TD9636_STAGE TD9636_WIND TD9636_PRES TD9635_LAT TD9635_LON TD9635_WIND TD9635_PRES TD9635_ROCI NEUMANN_LAT NEUMANN_LON NEUMANN_CLASS NEUMANN_WIND NEUMANN_PRES MLC_LAT MLC_LON MLC_CLASS MLC_WIND MLC_PRES USA_GUST BOM_GUST BOM_GUST_PER REUNION_GUST REUNION_GUST_PER USA_SEAHGT USA_SEARAD_NE USA_SEARAD_SE USA_SEARAD_SW USA_SEARAD_NW STORM_SPEED STORM_DIR
1991268N12264 1991 72 EP MM KEVIN 1991-09-25 00:00:00 TS 12.2000 -96.2000 25 1008 hurdat_epa main 383 369 O_____________ hurdat_epa EP131991 12.2000 -96.2000 TD 25 1008 -1 8 279
1991268N12264 1991 72 EP MM KEVIN 1991-09-25 03:00:00 TS 12.2626 -96.6074 main 369 369 P_____________ EP131991 12.2626 -96.6074 TD 27 1007 -1 8 277
1991268N12264 1991 72 EP MM KEVIN 1991-09-25 06:00:00 TS 12.3000 -97.0000 30 1007 hurdat_epa main 371 371 O_____________ hurdat_epa EP131991 12.3000 -97.0000 TD 30 1007 -1 7 273
1991268N12264 1991 72 EP MM KEVIN 1991-09-25 09:00:00 TS 12.3000 -97.3651 main 379 379 P_____________ EP131991 12.3000 -97.3651 TD 30 1006 -1 7 270
1991268N12264 1991 72 EP MM KEVIN 1991-09-25 12:00:00 TS 12.3000 -97.7000 30 1006 hurdat_epa main 388 388 O_____________ hurdat_epa EP131991 12.3000 -97.7000 TD 30 1006 -1 6 272
1991268N12264 1991 72 EP MM KEVIN 1991-09-25 15:00:00 TS 12.3275 -98.0225 main 399 397 P_____________ EP131991 12.3275 -98.0225 TD 32 1005 -1 6 280
1991268N12264 1991 72 EP MM KEVIN 1991-09-25 18:00:00 TS 12.4000 -98.3000 35 1005 hurdat_epa main 402 397 O_____________ hurdat_epa EP131991 12.4000 -98.3000 TS 35 1005 0 5 294
1991268N12264 1991 72 EP MM KEVIN 1991-09-25 21:00:00 TS 12.5349 -98.5075 main 399 379 P_____________ EP131991 12.5349 -98.5075 TS 40 1003 0 5 308
1991268N12264 1991 72 EP MM KEVIN 1991-09-26 00:00:00 TS 12.7000 -98.7000 45 1001 hurdat_epa main 381 374 O_____________ hurdat_epa EP131991 12.7000 -98.7000 TS 45 1001 0 5 308
1991268N12264 1991 72 EP MM KEVIN 1991-09-26 03:00:00 TS 12.8499 -98.9275 main 377 363 P_____________ EP131991 12.8499 -98.9275 TS 47 998 0 6 302
1991268N12264 1991 72 EP MM KEVIN 1991-09-26 06:00:00 TS 13.0000 -99.2000 50 996 hurdat_epa main 368 362 O_____________ hurdat_epa EP131991 13.0000 -99.2000 TS 50 996 0 7 297
1991268N12264 1991 72 EP MM KEVIN 1991-09-26 09:00:00 TS 13.1575 -99.5350 main 360 359 P_____________ EP131991 13.1575 -99.5350 TS 55 993 0 7 294
1991268N12264 1991 72 EP MM KEVIN 1991-09-26 12:00:00 TS 13.3000 -99.9000 60 991 hurdat_epa main 363 357 O_____________ hurdat_epa EP131991 13.3000 -99.9000 TS 60 991 0 8 291
1991268N12264 1991 72 EP MM KEVIN 1991-09-26 15:00:00 TS 13.4225 -100.257 main 372 366 P_____________ EP131991 13.4225 -100.257 TS 65 988 1 7 286
1991268N12264 1991 72 EP MM KEVIN 1991-09-26 18:00:00 TS 13.5000 -100.600 70 985 hurdat_epa main 371 371 O_____________ hurdat_epa EP131991 13.5000 -100.600 HU 70 985 1 6 277
1991268N12264 1991 72 EP MM KEVIN 1991-09-26 21:00:00 TS 13.5000 -100.915 main 380 380 P_____________ EP131991 13.5000 -100.915 HU 75 980 1 6 270
1991268N12264 1991 72 EP MM KEVIN 1991-09-27 00:00:00 TS 13.5000 -101.200 80 975 hurdat_epa main 392 392 O_____________ hurdat_epa EP131991 13.5000 -101.200 HU 80 975 1 5 279
1991268N12264 1991 72 EP MM KEVIN 1991-09-27 03:00:00 TS 13.5850 -101.465 main 397 392 P_____________ EP131991 13.5850 -101.465 HU 85 971 2 5 292
1991268N12264 1991 72 EP MM KEVIN 1991-09-27 06:00:00 TS 13.7000 -101.700 90 968 hurdat_epa main 398 394 O_____________ hurdat_epa EP131991 13.7000 -101.700 HU 90 968 2 5 295
1991268N12264 1991 72 EP MM KEVIN 1991-09-27 09:00:00 TS 13.7849 -101.900 main 398 391 P_____________ EP131991 13.7849 -101.900 HU 92 966 2 4 297
1991268N12264 1991 72 EP MM KEVIN 1991-09-27 12:00:00 TS 13.9000 -102.100 95 965 hurdat_epa main 394 380 O_____________ hurdat_epa EP131991 13.9000 -102.100 HU 95 965 2 5 305
1991268N12264 1991 72 EP MM KEVIN 1991-09-27 15:00:00 TS 14.0850 -102.335 main 380 367 P_____________ EP131991 14.0850 -102.335 HU 92 966 2 6 310
1991268N12264 1991 72 EP MM KEVIN 1991-09-27 18:00:00 TS 14.3000 -102.600 90 968 hurdat_epa main 372 362 O_____________ hurdat_epa EP131991 14.3000 -102.600 HU 90 968 2 7 309
1991268N12264 1991 72 EP MM KEVIN 1991-09-27 21:00:00 TS 14.5150 -102.892 main 367 361 P_____________ EP131991 14.5150 -102.892 HU 90 968 2 7 305
1991268N12264 1991 72 EP MM KEVIN 1991-09-28 00:00:00 TS 14.7000 -103.200 90 969 hurdat_epa main 367 362 O_____________ hurdat_epa EP131991 14.7000 -103.200 HU 90 969 2 7 297
1991268N12264 1991 72 EP MM KEVIN 1991-09-28 03:00:00 TS 14.8225 -103.508 main 369 362 P_____________ EP131991 14.8225 -103.508 HU 90 969 2 6 289
1991268N12264 1991 72 EP MM KEVIN 1991-09-28 06:00:00 TS 14.9000 -103.800 90 970 hurdat_epa main 369 369 O_____________ hurdat_epa EP131991 14.9000 -103.800 HU 90 970 2 6 283
1991268N12264 1991 72 EP MM KEVIN 1991-09-28 09:00:00 TS 14.9500 -104.080 main 369 369 P_____________ EP131991 14.9500 -104.080 HU 90 969 2 5 282
1991268N12264 1991 72 EP MM KEVIN 1991-09-28 12:00:00 TS 15.0000 -104.300 90 969 hurdat_epa main 376 369 O_____________ hurdat_epa EP131991 15.0000 -104.300 HU 90 969 2 3 293
1991268N12264 1991 72 EP MM KEVIN 1991-09-28 15:00:00 TS 15.0849 -104.408 main 369 362 P_____________ EP131991 15.0849 -104.408 HU 92 966 2 3 316
1991268N12264 1991 72 EP MM KEVIN 1991-09-28 18:00:00 TS 15.2000 -104.500 95 963 hurdat_epa main 362 355 O_____________ hurdat_epa EP131991 15.2000 -104.500 HU 95 963 2 4 314
1991268N12264 1991 72 EP MM KEVIN 1991-09-28 21:00:00 TS 15.3350 -104.678 main 359 342 P_____________ EP131991 15.3350 -104.678 HU 97 961 3 5 308
1991268N12264 1991 72 EP MM KEVIN 1991-09-29 00:00:00 TS 15.5000 -104.900 100 960 hurdat_epa main 346 337 O_____________ hurdat_epa EP131991 15.5000 -104.900 HU 100 960 3 6 310
1991268N12264 1991 72 EP MM KEVIN 1991-09-29 03:00:00 TS 15.7000 -105.135 main 337 329 P_____________ EP131991 15.7000 -105.135 HU 102 958 3 6 310
1991268N12264 1991 72 EP MM KEVIN 1991-09-29 06:00:00 TS 15.9000 -105.400 105 957 hurdat_epa main 336 333 O_____________ hurdat_epa EP131991 15.9000 -105.400 HU 105 957 3 6 304
1991268N12264 1991 72 EP MM KEVIN 1991-09-29 09:00:00 TS 16.0575 -105.685 main 339 339 P_____________ EP131991 16.0575 -105.685 HU 107 954 3 7 298
1991268N12264 1991 72 EP MM KEVIN 1991-09-29 12:00:00 TS 16.2000 -106.000 110 951 hurdat_epa main 354 352 O_____________ hurdat_epa EP131991 16.2000 -106.000 HU 110 951 3 7 295
1991268N12264 1991 72 EP MM KEVIN 1991-09-29 15:00:00 TS 16.3499 -106.328 main 361 351 P_____________ EP131991 16.3499 -106.328 HU 112 949 3 7 294
1991268N12264 1991 72 EP MM KEVIN 1991-09-29 18:00:00 TS 16.5000 -106.700 115 948 hurdat_epa main 362 359 O_____________ hurdat_epa EP131991 16.5000 -106.700 HU 115 948 4 8 292
1991268N12264 1991 72 EP MM KEVIN 1991-09-29 21:00:00 TS 16.6575 -107.135 main 370 370 P_____________ EP131991 16.6575 -107.135 HU 115 947 4 9 289
1991268N12264 1991 72 EP MM KEVIN 1991-09-30 00:00:00 TS 16.8000 -107.600 115 947 hurdat_epa main 399 399 O_____________ hurdat_epa EP131991 16.8000 -107.600 HU 115 947 4 9 286
1991268N12264 1991 72 EP MM KEVIN 1991-09-30 03:00:00 TS 16.8998 -108.035 main 422 422 P_____________ EP131991 16.8998 -108.035 HU 115 946 4 9 283
1991268N12264 1991 72 EP MM KEVIN 1991-09-30 06:00:00 TS 17.0000 -108.500 115 946 hurdat_epa main 453 453 O_____________ hurdat_epa EP131991 17.0000 -108.500 HU 115 946 4 10 285
1991268N12264 1991 72 EP MM KEVIN 1991-09-30 09:00:00 TS 17.1499 -109.027 main 486 486 P_____________ EP131991 17.1499 -109.027 HU 117 944 4 11 286
1991268N12264 1991 72 EP MM KEVIN 1991-09-30 12:00:00 TS 17.3000 -109.600 120 943 hurdat_epa main 526 526 O_____________ hurdat_epa EP131991 17.3000 -109.600 HU 120 943 4 11 283
1991268N12264 1991 72 EP MM KEVIN 1991-09-30 15:00:00 TS 17.4149 -110.193 main 574 574 P_____________ EP131991 17.4149 -110.193 HU 120 940 4 12 280
1991268N12264 1991 72 EP MM KEVIN 1991-09-30 18:00:00 TS 17.5000 -110.800 120 938 hurdat_epa main 609 609 O_____________ hurdat_epa EP131991 17.5000 -110.800 HU 120 938 4 12 277
1991268N12264 1991 72 EP MM KEVIN 1991-09-30 21:00:00 TS 17.5499 -111.408 main 621 610 P_____________ EP131991 17.5499 -111.408 HU 122 936 4 11 275
1991268N12264 1991 72 EP MM KEVIN 1991-10-01 00:00:00 TS 17.6000 -112.000 125 935 hurdat_epa main 628 628 O_____________ hurdat_epa EP131991 17.6000 -112.000 HU 125 935 4 11 278
1991268N12264 1991 72 EP MM KEVIN 1991-10-01 03:00:00 TS 17.6998 -112.557 main 641 640 P_____________ EP131991 17.6998 -112.557 HU 122 936 4 11 281
1991268N12264 1991 72 EP MM KEVIN 1991-10-01 06:00:00 TS 17.8000 -113.100 120 937 hurdat_epa main 655 655 O_____________ hurdat_epa EP131991 17.8000 -113.100 HU 120 937 4 11 279
1991268N12264 1991 72 EP MM KEVIN 1991-10-01 09:00:00 TS 17.8574 -113.658 main 679 679 P_____________ EP131991 17.8574 -113.658 HU 120 939 4 11 275
1991268N12264 1991 72 EP MM KEVIN 1991-10-01 12:00:00 TS 17.9000 -114.200 120 942 hurdat_epa main 709 709 O_____________ hurdat_epa EP131991 17.9000 -114.200 HU 120 942 4 10 275
1991268N12264 1991 72 EP MM KEVIN 1991-10-01 15:00:00 TS 17.9498 -114.700 main 743 734 P_____________ EP131991 17.9498 -114.700 HU 117 944 4 10 276
1991268N12264 1991 72 EP MM KEVIN 1991-10-01 18:00:00 TS 18.0000 -115.200 115 946 hurdat_epa main 770 770 O_____________ hurdat_epa EP131991 18.0000 -115.200 HU 115 946 4 10 277
1991268N12264 1991 72 EP MM KEVIN 1991-10-01 21:00:00 TS 18.0650 -115.750 main 800 800 P_____________ EP131991 18.0650 -115.750 HU 115 946 4 11 275
1991268N12264 1991 72 EP MM KEVIN 1991-10-02 00:00:00 TS 18.1000 -116.300 115 947 hurdat_epa main 847 847 O_____________ hurdat_epa EP131991 18.1000 -116.300 HU 115 947 4 10 271
1991268N12264 1991 72 EP MM KEVIN 1991-10-02 03:00:00 TS 18.0798 -116.807 main 883 883 P_____________ EP131991 18.0798 -116.807 HU 115 947 4 10 264
1991268N12264 1991 72 EP MM KEVIN 1991-10-02 06:00:00 TS 18.0000 -117.300 115 948 hurdat_epa main 922 922 O_____________ hurdat_epa EP131991 18.0000 -117.300 HU 115 948 4 10 258
1991268N12264 1991 72 EP MM KEVIN 1991-10-02 09:00:00 TS 17.8799 -117.807 main 962 962 P_____________ EP131991 17.8799 -117.807 HU 115 948 4 10 253
1991268N12264 1991 72 EP MM KEVIN 1991-10-02 12:00:00 TS 17.7000 -118.300 115 949 hurdat_epa main 1012 1012 O_____________ hurdat_epa EP131991 17.7000 -118.300 HU 115 949 4 10 246
1991268N12264 1991 72 EP MM KEVIN 1991-10-02 15:00:00 TS 17.4723 -118.757 main 1063 1063 P_____________ EP131991 17.4723 -118.757 HU 112 950 3 10 240
1991268N12264 1991 72 EP MM KEVIN 1991-10-02 18:00:00 TS 17.2000 -119.200 110 951 hurdat_epa main 1116 1116 O_____________ hurdat_epa EP131991 17.2000 -119.200 HU 110 951 3 10 236
1991268N12264 1991 72 EP MM KEVIN 1991-10-02 21:00:00 TS 16.8999 -119.650 main 1169 1169 P_____________ EP131991 16.8999 -119.650 HU 107 953 3 11 235
1991268N12264 1991 72 EP MM KEVIN 1991-10-03 00:00:00 TS 16.6000 -120.100 105 955 hurdat_epa main 1229 1229 O_____________ hurdat_epa EP131991 16.6000 -120.100 HU 105 955 3 10 237
1991268N12264 1991 72 EP MM KEVIN 1991-10-03 03:00:00 TS 16.3423 -120.535 main 1282 1282 P_____________ EP131991 16.3423 -120.535 HU 105 956 3 10 240
1991268N12264 1991 72 EP MM KEVIN 1991-10-03 06:00:00 TS 16.1000 -121.000 105 957 hurdat_epa main 1335 1335 O_____________ hurdat_epa EP131991 16.1000 -121.000 HU 105 957 3 11 243
1991268N12264 1991 72 EP MM KEVIN 1991-10-03 09:00:00 TS 15.8425 -121.535 main 1396 1396 P_____________ EP131991 15.8425 -121.535 HU 102 958 3 12 245
1991268N12264 1991 72 EP MM KEVIN 1991-10-03 12:00:00 TS 15.6000 -122.100 100 959 hurdat_epa main 1456 1456 O_____________ hurdat_epa EP131991 15.6000 -122.100 HU 100 959 3 12 247
1991268N12264 1991 72 EP MM KEVIN 1991-10-03 15:00:00 TS 15.3849 -122.650 main 1510 1510 P_____________ EP131991 15.3849 -122.650 HU 100 959 3 11 249
1991268N12264 1991 72 EP MM KEVIN 1991-10-03 18:00:00 TS 15.2000 -123.200 100 960 hurdat_epa main 1571 1571 O_____________ hurdat_epa EP131991 15.2000 -123.200 HU 100 960 3 11 252
1991268N12264 1991 72 EP MM KEVIN 1991-10-03 21:00:00 TS 15.0349 -123.750 main 1625 1625 P_____________ EP131991 15.0349 -123.750 HU 97 961 3 11 254
1991268N12264 1991 72 EP MM KEVIN 1991-10-04 00:00:00 TS 14.9000 -124.300 95 962 hurdat_epa main 1679 1679 O_____________ hurdat_epa EP131991 14.9000 -124.300 HU 95 962 2 11 257
1991268N12264 1991 72 EP MM KEVIN 1991-10-04 03:00:00 TS 14.7848 -124.842 main 1726 1726 P_____________ EP131991 14.7848 -124.842 HU 92 964 2 11 259
1991268N12264 1991 72 EP MM KEVIN 1991-10-04 06:00:00 TS 14.7000 -125.400 90 967 hurdat_epa main 1782 1782 O_____________ hurdat_epa EP131991 14.7000 -125.400 HU 90 967 2 11 262
1991268N12264 1991 72 EP MM KEVIN 1991-10-04 09:00:00 TS 14.6274 -125.993 main 1838 1838 P_____________ EP131991 14.6274 -125.993 HU 90 968 2 12 265
1991268N12264 1991 72 EP MM KEVIN 1991-10-04 12:00:00 TS 14.6000 -126.600 90 969 hurdat_epa main 1887 1887 O_____________ hurdat_epa EP131991 14.6000 -126.600 HU 90 969 2 12 270
1991268N12264 1991 72 EP MM KEVIN 1991-10-04 15:00:00 TS 14.6349 -127.207 main 1932 1932 P_____________ EP131991 14.6349 -127.207 HU 90 969 2 12 275
1991268N12264 1991 72 EP MM KEVIN 1991-10-04 18:00:00 TS 14.7000 -127.800 90 970 hurdat_epa main 1964 1964 O_____________ hurdat_epa EP131991 14.7000 -127.800 HU 90 970 2 11 276
1991268N12264 1991 72 EP MM KEVIN 1991-10-04 21:00:00 TS 14.7499 -128.365 main 2007 1998 P_____________ EP131991 14.7499 -128.365 HU 87 970 2 11 275
1991268N12264 1991 72 EP MM KEVIN 1991-10-05 00:00:00 TS 14.8000 -128.900 85 971 hurdat_epa main 2034 2034 O_____________ hurdat_epa EP131991 14.8000 -128.900 HU 85 971 2 10 275
1991268N12264 1991 72 EP MM KEVIN 1991-10-05 03:00:00 TS 14.8423 -129.403 main 2071 2070 P_____________ EP131991 14.8423 -129.400 HU 82 972 1 10 276
1991268N12264 1991 72 EP MM KEVIN 1991-10-05 06:00:00 TS 14.9000 -129.900 80 974 hurdat_epa main 2100 2100 O_____________ hurdat_epa EP131991 14.9000 -129.900 HU 80 974 1 10 278
1991268N12264 1991 72 EP MM KEVIN 1991-10-05 09:00:00 TS 14.9925 -130.446 main 2131 2131 P_____________ EP131991 14.9926 -130.465 HU 80 975 1 11 281
1991268N12264 1991 72 EP MM KEVIN 1991-10-05 12:00:00 TS 15.1000 -130.967 80 976 hurdat_epa main 2169 2169 O_____________ hurdat_epa EP131991 15.1000 -131.000 HU 80 976 1 10 283
1991268N12264 1991 72 EP MM KEVIN 1991-10-05 15:00:00 TS 15.1999 -131.411 main 2193 2193 P_____________ EP131991 15.1998 -131.430 HU 80 977 1 8 284
1991268N12264 1991 72 EP MM KEVIN 1991-10-05 18:00:00 TS 15.3000 -131.800 80 978 hurdat_epa main 2218 2218 O_____________ hurdat_epa EP131991 15.3000 -131.800 HU 80 978 1 8 285
1991268N12264 1991 72 EP MM KEVIN 1991-10-05 21:00:00 TS 15.3999 -132.168 main 2243 2243 P_____________ EP131991 15.3999 -132.165 HU 77 978 1 7 286
1991268N12264 1991 72 EP MM KEVIN 1991-10-06 00:00:00 TS 15.5000 -132.500 75 979 hurdat_epa main 2260 2260 O_____________ hurdat_epa EP131991 15.5000 -132.500 HU 75 979 1 7 287
1991268N12264 1991 72 EP MM KEVIN 1991-10-06 03:00:00 TS 15.5925 -132.823 main 2278 2278 P_____________ EP131991 15.5925 -132.823 HU 77 978 1 6 289
1991268N12264 1991 72 EP MM KEVIN 1991-10-06 06:00:00 TS 15.7000 -133.100 80 977 hurdat_epa main 2296 2296 O_____________ hurdat_epa EP131991 15.7000 -133.100 HU 80 977 1 5 297
1991268N12264 1991 72 EP MM KEVIN 1991-10-06 09:00:00 TS 15.8425 -133.323 main 2305 2288 P_____________ EP131991 15.8425 -133.323 HU 82 974 1 5 308
1991268N12264 1991 72 EP MM KEVIN 1991-10-06 12:00:00 TS 16.0000 -133.500 85 972 hurdat_epa main 2288 2275 O_____________ hurdat_epa EP131991 16.0000 -133.500 HU 85 972 2 4 314
1991268N12264 1991 72 EP MM KEVIN 1991-10-06 15:00:00 TS 16.1500 -133.658 main 2264 2249 P_____________ EP131991 16.1500 -133.658 HU 87 970 2 4 316
1991268N12264 1991 72 EP MM KEVIN 1991-10-06 18:00:00 TS 16.3000 -133.800 90 969 hurdat_epa main 2249 2236 O_____________ hurdat_epa EP131991 16.3000 -133.800 HU 90 969 2 4 317
1991268N12264 1991 72 EP MM KEVIN 1991-10-06 21:00:00 TS 16.4425 -133.943 main 2236 2211 P_____________ EP131991 16.4425 -133.943 HU 92 967 2 4 316
1991268N12264 1991 72 EP MM KEVIN 1991-10-07 00:00:00 TS 16.6000 -134.100 95 965 hurdat_epa main 2211 2185 O_____________ hurdat_epa EP131991 16.6000 -134.100 HU 95 965 2 5 316
1991268N12264 1991 72 EP MM KEVIN 1991-10-07 03:00:00 TS 16.7925 -134.293 main 2185 2160 P_____________ EP131991 16.7925 -134.293 HU 95 963 2 6 316
1991268N12264 1991 72 EP MM KEVIN 1991-10-07 06:00:00 TS 17.0000 -134.500 95 962 hurdat_epa main 2160 2135 O_____________ hurdat_epa EP131991 17.0000 -134.500 HU 95 962 2 6 317
1991268N12264 1991 72 EP MM KEVIN 1991-10-07 09:00:00 TS 17.2000 -134.693 main 2135 2111 P_____________ EP131991 17.2000 -134.693 HU 97 961 3 6 316
1991268N12264 1991 72 EP MM KEVIN 1991-10-07 12:00:00 TS 17.4000 -134.900 100 960 hurdat_epa main 2111 2086 O_____________ hurdat_epa EP131991 17.4000 -134.900 HU 100 960 3 6 313
1991268N12264 1991 72 EP MM KEVIN 1991-10-07 15:00:00 TS 17.6075 -135.143 main 2086 2051 P_____________ EP131991 17.6075 -135.143 HU 100 960 3 6 310
1991268N12264 1991 72 EP MM KEVIN 1991-10-07 18:00:00 TS 17.8000 -135.400 100 960 hurdat_epa main 2051 2029 O_____________ hurdat_epa EP131991 17.8000 -135.400 HU 100 960 3 6 306
1991268N12264 1991 72 EP MM KEVIN 1991-10-07 21:00:00 TS 17.9499 -135.643 main 2029 1994 P_____________ EP131991 17.9499 -135.643 HU 100 960 3 6 302
1991268N12264 1991 72 EP MM KEVIN 1991-10-08 00:00:00 TS 18.1000 -135.900 100 960 hurdat_epa main 1994 1960 O_____________ hurdat_epa EP131991 18.1000 -135.900 HU 100 960 3 6 304
1991268N12264 1991 72 EP MM KEVIN 1991-10-08 03:00:00 TS 18.2924 -136.178 main 1960 1926 P_____________ EP131991 18.2924 -136.178 HU 97 961 3 7 305
1991268N12264 1991 72 EP MM KEVIN 1991-10-08 06:00:00 TS 18.5000 -136.500 95 963 hurdat_epa main 1926 1882 O_____________ hurdat_epa EP131991 18.5000 -136.500 HU 95 963 2 8 301
1991268N12264 1991 72 EP MM KEVIN 1991-10-08 09:00:00 TS 18.6925 -136.885 main 1882 1838 P_____________ EP131991 18.6925 -136.885 HU 92 964 2 9 298
1991268N12264 1991 72 EP MM KEVIN 1991-10-08 12:00:00 TS 18.9000 -137.300 90 966 hurdat_epa main 1838 1794 O_____________ hurdat_epa EP131991 18.9000 -137.300 HU 90 966 2 9 300
1991268N12264 1991 72 EP MM KEVIN 1991-10-08 15:00:00 TS 19.1424 -137.693 main 1794 1750 P_____________ EP131991 19.1424 -137.693 HU 87 968 2 9 303
1991268N12264 1991 72 EP MM KEVIN 1991-10-08 18:00:00 TS 19.4000 -138.100 85 970 hurdat_epa main 1750 1707 O_____________ hurdat_epa EP131991 19.4000 -138.100 HU 85 970 2 9 303
1991268N12264 1991 72 EP MM KEVIN 1991-10-08 21:00:00 TS 19.6499 -138.535 main 1707 1653 P_____________ EP131991 19.6499 -138.535 HU 82 972 1 10 301
1991268N12264 1991 72 EP MM KEVIN 1991-10-09 00:00:00 TS 19.9000 -139.000 80 975 hurdat_epa main 1653 1601 O_____________ hurdat_epa EP131991 19.9000 -139.000 HU 80 975 1 10 299
1991268N12264 1991 72 EP MM KEVIN 1991-10-09 03:00:00 TS 20.1424 -139.493 main 1601 1549 P_____________ EP131991 20.1424 -139.493 HU 77 977 1 11 298
1991268N12264 1991 72 EP CP KEVIN 1991-10-09 06:00:00 TS 20.4000 -140.000 75 980 hurdat_epa main 1549 1498 O_____________ hurdat_epa EP131991 20.4000 -140.000 HU 75 980 1 11 300
1991268N12264 1991 72 EP CP KEVIN 1991-10-09 09:00:00 TS 20.6868 -140.516 main 1498 1448 P_____________ EP131991 20.6850 -140.515 HU 70 982 1 11 303
1991268N12264 1991 72 EP CP KEVIN 1991-10-09 12:00:00 TS 21.0000 -141.000 65 984 hurdat_epa main 1448 1410 O_____________ hurdat_epa EP131991 21.0000 -141.000 HU 65 984 1 10 307
1991268N12264 1991 72 EP CP KEVIN 1991-10-09 15:00:00 TS 21.3197 -141.408 main 1410 1374 P_____________ EP131991 21.3197 -141.408 HU 62 986 0 10 313
1991268N12264 1991 72 EP CP KEVIN 1991-10-09 18:00:00 TS 21.7000 -141.800 60 988 hurdat_epa main 1374 1332 O_____________ hurdat_epa EP131991 21.7000 -141.800 TS 60 988 0 12 318
1991268N12264 1991 72 EP CP KEVIN 1991-10-09 21:00:00 TS 22.2227 -142.285 main 1332 1304 P_____________ EP131991 22.2228 -142.294 TS 55 990 0 13 320
1991268N12264 1991 72 EP CP KEVIN 1991-10-10 00:00:00 TS 22.7000 -142.700 50 992 hurdat_epa main 1304 1290 O_____________ hurdat_epa EP131991 22.7000 -142.700 TS 50 992 0 9 322
1991268N12264 1991 72 EP CP KEVIN 1991-10-10 03:00:00 TS 22.9222 -142.884 main 1290 1283 P_____________ EP131991 22.9221 -142.816 TS 47 994 0 5 323
1991268N12264 1991 72 EP CP KEVIN 1991-10-10 06:00:00 TS 23.1000 -143.025 45 996 hurdat_epa main 1286 1266 O_____________ hurdat_epa EP131991 23.1000 -142.900 TS 45 996 0 7 322
1991268N12264 1991 72 EP CP KEVIN 1991-10-10 09:00:00 TS 23.4426 -143.328 main 1266 1248 P_____________ EP131991 23.4427 -143.227 TS 45 997 0 9 321
1991268N12264 1991 72 EP CP KEVIN 1991-10-10 12:00:00 TS 23.8000 -143.650 45 999 hurdat_epa main 1252 1232 O_____________ hurdat_epa EP131991 23.8000 -143.600 TS 45 999 0 8 321
1991268N12264 1991 72 EP CP KEVIN 1991-10-10 15:00:00 TS 24.0874 -143.899 main 1236 1226 P_____________ EP131991 24.0874 -143.880 TS 45 1000 0 6 321
1991268N12264 1991 72 EP CP KEVIN 1991-10-10 18:00:00 TS 24.3000 -144.100 45 1001 hurdat_epa main 1226 1212 O_____________ hurdat_epa EP131991 24.3000 -144.100 TS 45 1001 0 5 315
1991268N12264 1991 72 EP CP KEVIN 1991-10-10 21:00:00 TS 24.4225 -144.269 main 1212 1208 P_____________ EP131991 24.4224 -144.273 TS 40 1002 0 3 306
1991268N12264 1991 72 EP CP KEVIN 1991-10-11 00:00:00 TS 24.5000 -144.400 35 1003 hurdat_epa main 1208 1204 O_____________ hurdat_epa EP131991 24.5000 -144.400 TS 35 1003 0 3 312
1991268N12264 1991 72 EP CP KEVIN 1991-10-11 03:00:00 TS 24.6074 -144.493 main 1204 1200 P_____________ EP131991 24.6074 -144.493 TS 32 1004 -1 3 318
1991268N12264 1991 72 EP CP KEVIN 1991-10-11 06:00:00 TS 24.7000 -144.600 30 1005 hurdat_epa main 1200 1182 O_____________ hurdat_epa EP131991 24.7000 -144.600 TD 30 1005 -1 3 299
1991268N12264 1991 72 EP CP KEVIN 1991-10-11 09:00:00 TS 24.7500 -144.778 main 1182 1169 P_____________ EP131991 24.7500 -144.785 TD 30 1006 -1 4 285
1991268N12264 1991 72 EP CP KEVIN 1991-10-11 12:00:00 TS 24.8000 -145.000 30 1007 hurdat_epa main 1169 1157 O_____________ hurdat_epa EP131991 24.8000 -145.000 TD 30 1007 -1 4 288
1991268N12264 1991 72 EP CP KEVIN 1991-10-11 15:00:00 TS 24.8772 -145.198 main 1157 1136 P_____________ EP131991 24.8771 -145.140 TD 30 1007 -1 5 294
1991268N12264 1991 72 EP CP KEVIN 1991-10-11 18:00:00 TS 25.0000 -145.500 30 1008 hurdat_epa main 1136 1105 O_____________ hurdat_epa EP131991 25.0000 -145.400 TD 30 1008 -1 8 294
1991268N12264 1991 72 EP CP KEVIN 1991-10-11 21:00:00 TS 25.2079 -146.020 main 1105 1066 P_____________ EP131991 25.2081 -145.962 TD 27 1008 -1 11 292
1991268N12264 1991 72 EP CP KEVIN 1991-10-12 00:00:00 TS 25.4000 -146.600 25 1009 hurdat_epa main 1066 1031 O_____________ hurdat_epa EP131991 25.4000 -146.600 TD 25 1009 -1 10 286
1991268N12264 1991 72 EP CP KEVIN 1991-10-12 03:00:00 TS 25.4849 -147.085 main 1031 999 P_____________ EP131991 25.4847 -147.100 TD 25 1009 -1 8 277
1991268N12264 1991 72 EP CP KEVIN 1991-10-12 06:00:00 ET 25.5000 -147.500 25 1009 hurdat_epa main 999 O_____________ hurdat_epa EP131991 25.5000 -147.500 EX 25 1009 -4 7 272

About IBTrACS Database

This database is a web-friendly format of International Best Track Archive for Climate Stewardship (IBTrACS), a global best track data archive curated by NOAA dating back to 1842.

Updated: 2021-12-06